Rivas, Nicaragua

9:39 AM CST on September 01, 2015 (GMT -0600)
Rivas | | Change Station
CLOSE
Current Station
Airport
Location: Rivas,
Elevation: 174 ft
Nearby Weather Stations

Elev 174 ft 11.43 °N, 85.84 °W | Updated 39 minutes ago

Mostly Cloudy
Mostly Cloudy
86 °F
Feels Like 95 °F
N
7
Wind Variable Wind from NNE

Today
High -- | Low -- °F
--% Chance of Precip.
Yesterday
High -- | Low -- °F
Precip. -- in
5:33 AM 5:53 PM
Waning Gibbous, 88% visible
Pressure 29.89 in
Visibility 6.2 miles
Clouds Few 1800 ft
Mostly Cloudy 1800 ft
Heat Index 95 °F
Dew Point 75 °F
Humidity 70%
Rainfall 0.00 in
Snow Depth Not available.
UV 5 out of 12
Pollen Not available.
Air Quality Not available.
Flu Activity Not available.
METAR MNRS 011500Z 02006KT 9999 FEW018CB BKN018 30/24 Q1012 CB/SE/S
Pressure 29.89 in
Visibility 6.2 miles
Clouds Few 1800 ft
Mostly Cloudy 1800 ft
Heat Index 95 °F
Dew Point 75 °F
Humidity 70%
Rainfall 0.00 in
Snow Depth Not available.
UV 5 out of 12
Pollen Not available.
Air Quality Not available.
Flu Activity Not available.
METAR MNRS 011500Z 02006KT 9999 FEW018CB BKN018 30/24 Q1012 CB/SE/S

10-Day Weather Forecast

×

Almanac

Astronomy

Sep. 01, 2015 Rise Set
Actual Time
Civil Twilight
Nautical Twilight
Astronomical Twilight
Moon
Length of Visible Light
Length of Day
Tomorrow will be .
, % of the Moon is Illuminated

Today's Extremes

Country Highs Country Lows

Community

WunderPhotos

Upload Photos

1,851,523 photos uploaded!

WunderBlogs® & News

Nearby

Air Quality

  Air Quality AQ Index Pollutant
Not available.

Snow Depth

Station Depth Elevation

Earthquake Activity

City Distance Mag. Time & Date
Minimum magnitude displayed is 2.5.

Coastal Water Temperatures

Place Temperature

Stations

Nearby Weather Stations

Station Location Temp. Windchill Dew Point Humidity Wind Precip. Elev Updated Type